Time;durP1;ratioP1;P1;durP2;ratioP2;P2;SDS_P1;SDS_P2;PMS_P1;PMS_P2;Temp;Humidity;BMP_temperature;BMP_pressure;BME280_temperature;BME280_humidity;BME280_pressure;Samples;Min_cycle;Max_cycle;Signal;HPM_P1;HPM_P2
2022/11/24 05:00:54;;;;;;;7.10;3.00;;;7.60;99.90;;;;;;5785517;23;20489;-67
2022/11/24 05:03:21;;;;;;;5.53;2.73;;;7.50;99.90;;;;;;4994194;28;20941;-67
2022/11/24 05:05:47;;;;;;;4.33;2.70;;;7.50;99.90;;;;;;4995543;28;20458;-67
2022/11/24 05:08:14;;;;;;;6.63;2.73;;;7.50;99.90;;;;;;4995409;28;20453;-67
2022/11/24 05:10:41;;;;;;;3.77;2.60;;;7.50;99.90;;;;;;4999466;28;20596;-68
2022/11/24 05:13:12;;;;;;;9.80;3.47;;;7.50;99.90;;;;;;5015521;28;20473;-67
2022/11/24 05:15:40;;;;;;;6.53;3.20;;;7.50;99.90;;;;;;5015326;28;20943;-67
2022/11/24 05:18:11;;;;;;;6.07;2.77;;;7.50;99.90;;;;;;5014564;28;20457;-68
2022/11/24 05:20:38;;;;;;;6.87;3.20;;;7.50;99.90;;;;;;5014469;28;20503;-67
2022/11/24 05:23:06;;;;;;;8.70;2.90;;;7.40;99.90;;;;;;5014871;28;20864;-68
2022/11/24 05:25:36;;;;;;;6.87;3.10;;;7.50;99.90;;;;;;5015056;28;20460;-67
2022/11/24 05:28:04;;;;;;;6.37;2.53;;;7.50;99.90;;;;;;5014675;28;20457;-67
2022/11/24 05:30:32;;;;;;;8.23;2.87;;;7.50;99.90;;;;;;5014625;28;20476;-68
2022/11/24 05:32:59;;;;;;;9.33;2.90;;;7.50;99.90;;;;;;5014362;28;20466;-69
2022/11/24 05:35:27;;;;;;;9.03;3.80;;;7.50;99.90;;;;;;5014676;28;20456;-68
2022/11/24 05:37:54;;;;;;;6.93;3.13;;;7.40;99.90;;;;;;5014909;28;20813;-67
2022/11/24 05:40:20;;;;;;;4.83;2.63;;;7.50;99.90;;;;;;5014536;28;20820;-67
2022/11/24 05:42:47;;;;;;;10.13;2.87;;;7.50;99.90;;;;;;5014242;28;20514;-67
2022/11/24 05:45:15;;;;;;;7.93;2.90;;;7.50;99.90;;;;;;5014126;28;20452;-68
2022/11/24 05:47:42;;;;;;;5.90;3.10;;;7.50;99.90;;;;;;5014245;28;20449;-67
2022/11/24 05:50:11;;;;;;;8.97;3.30;;;7.50;99.90;;;;;;5014101;28;20461;-67
2022/11/24 05:52:39;;;;;;;5.43;2.97;;;7.50;99.90;;;;;;5017248;28;20506;-68
2022/11/24 05:55:07;;;;;;;6.47;3.00;;;7.60;99.90;;;;;;5017806;28;20480;-68
2022/11/24 05:57:34;;;;;;;6.17;2.93;;;7.60;99.90;;;;;;5018186;28;20456;-68
2022/11/24 06:00:02;;;;;;;7.00;2.87;;;7.50;99.90;;;;;;5017925;28;20969;-67
2022/11/24 06:02:30;;;;;;;9.53;2.87;;;7.50;99.90;;;;;;5017381;28;20476;-67
2022/11/24 06:04:56;;;;;;;11.93;3.20;;;7.40;99.90;;;;;;5017765;28;20449;-67
2022/11/24 06:07:23;;;;;;;8.07;3.50;;;7.40;99.90;;;;;;5017019;28;20448;-67
2022/11/24 06:09:51;;;;;;;7.90;2.87;;;7.40;99.90;;;;;;5016611;28;20965;-67
2022/11/24 06:12:19;;;;;;;8.30;3.03;;;7.40;99.90;;;;;;5016411;28;21002;-67
2022/11/24 06:14:45;;;;;;;10.70;3.87;;;7.40;99.90;;;;;;5016939;28;20530;-66
2022/11/24 06:17:13;;;;;;;7.67;3.00;;;7.50;99.90;;;;;;5016806;28;20456;-67
2022/11/24 06:19:39;;;;;;;7.20;3.40;;;7.40;99.90;;;;;;5016929;28;20560;-67
2022/11/24 06:22:06;;;;;;;11.63;3.07;;;7.50;99.90;;;;;;5016841;28;20546;-67
2022/11/24 06:24:32;;;;;;;8.87;3.80;;;7.50;99.90;;;;;;5016221;28;20453;-68
2022/11/24 06:27:00;;;;;;;7.03;3.10;;;7.50;99.90;;;;;;5016682;28;20452;-66
2022/11/24 06:29:27;;;;;;;11.33;3.57;;;7.50;99.90;;;;;;5016696;28;20457;-67
2022/11/24 06:31:54;;;;;;;9.17;2.90;;;7.50;99.90;;;;;;5016186;28;21062;-67
2022/11/24 06:34:20;;;;;;;10.90;3.17;;;7.60;99.90;;;;;;5016415;28;20484;-68
2022/11/24 06:36:47;;;;;;;12.83;3.40;;;7.50;99.90;;;;;;5016472;28;20460;-67
2022/11/24 06:39:13;;;;;;;5.67;3.23;;;7.60;99.90;;;;;;5016198;28;20932;-67
2022/11/24 06:41:40;;;;;;;6.87;2.80;;;7.60;99.90;;;;;;5016214;28;20476;-67
2022/11/24 06:44:08;;;;;;;6.77;3.07;;;7.60;99.90;;;;;;5016139;28;20476;-65
2022/11/24 06:46:35;;;;;;;6.33;3.00;;;7.60;99.90;;;;;;5016148;28;20453;-68
2022/11/24 06:49:02;;;;;;;6.80;2.93;;;7.60;99.90;;;;;;5016164;28;20455;-67
2022/11/24 06:51:28;;;;;;;9.37;3.73;;;7.70;99.90;;;;;;5016113;28;20505;-67
2022/11/24 06:53:55;;;;;;;9.03;2.87;;;7.70;99.90;;;;;;5016082;28;20469;-67
2022/11/24 06:56:22;;;;;;;8.93;2.90;;;7.80;99.90;;;;;;5015857;28;20951;-67
2022/11/24 06:58:50;;;;;;;9.93;3.20;;;7.80;99.90;;;;;;5016159;28;20468;-67
2022/11/24 07:01:20;;;;;;;9.23;3.00;;;7.90;99.90;;;;;;5015619;28;20488;-67
2022/11/24 07:03:47;;;;;;;9.47;3.00;;;8.00;99.90;;;;;;5015906;28;20456;-67
2022/11/24 07:06:14;;;;;;;10.43;3.57;;;8.00;99.90;;;;;;5016447;28;20539;-67
2022/11/24 07:08:41;;;;;;;10.57;2.43;;;8.10;99.90;;;;;;5015969;28;20454;-67
2022/11/24 07:11:09;;;;;;;7.80;2.60;;;8.10;99.90;;;;;;5015759;28;20531;-67
2022/11/24 07:13:36;;;;;;;7.10;2.90;;;8.20;99.90;;;;;;5015707;28;20535;-67
2022/11/24 07:16:11;;;;;;;10.30;2.83;;;8.20;99.90;;;;;;5015805;28;20453;-67
2022/11/24 07:18:39;;;;;;;8.80;3.60;;;8.30;99.90;;;;;;5015725;28;20441;-67
2022/11/24 07:21:07;;;;;;;9.57;3.40;;;8.30;99.90;;;;;;5015702;28;20472;-67
2022/11/24 07:23:33;;;;;;;9.30;3.20;;;8.40;99.90;;;;;;5015584;28;20508;-67
2022/11/24 07:26:02;;;;;;;13.37;2.97;;;8.40;99.90;;;;;;5015253;28;20998;-67
2022/11/24 07:28:28;;;;;;;6.93;3.30;;;8.40;99.90;;;;;;5015193;28;20801;-67
2022/11/24 07:30:55;;;;;;;10.13;3.67;;;8.40;99.90;;;;;;5015516;28;20479;-67
2022/11/24 07:33:24;;;;;;;11.80;3.40;;;8.40;99.90;;;;;;5015417;28;20861;-67
2022/11/24 07:35:52;;;;;;;9.73;3.70;;;8.50;99.90;;;;;;5015526;28;20456;-67
2022/11/24 07:38:19;;;;;;;10.33;3.70;;;8.50;99.90;;;;;;5015528;28;20488;-67
2022/11/24 07:40:46;;;;;;;7.53;3.50;;;8.50;99.90;;;;;;5014963;28;20494;-67
2022/11/24 07:43:12;;;;;;;11.20;4.07;;;8.50;99.90;;;;;;5015445;28;20503;-67
2022/11/24 07:45:39;;;;;;;11.40;4.40;;;8.50;99.90;;;;;;5015574;28;20448;-67
2022/11/24 07:48:06;;;;;;;14.03;4.27;;;8.50;99.90;;;;;;5015688;28;20502;-67
2022/11/24 07:50:33;;;;;;;13.07;4.37;;;8.50;99.90;;;;;;5015343;28;20503;-66
2022/11/24 07:53:03;;;;;;;10.07;3.50;;;8.50;99.90;;;;;;5015408;28;20935;-66
2022/11/24 07:55:29;;;;;;;7.73;2.37;;;8.60;99.90;;;;;;5015707;28;20520;-67
2022/11/24 07:57:59;;;;;;;13.73;3.43;;;8.50;99.90;;;;;;5014851;28;20457;-67
2022/11/24 08:00:26;;;;;;;12.37;3.40;;;8.50;99.90;;;;;;5015092;28;20543;-66
2022/11/24 08:02:52;;;;;;;9.90;2.93;;;8.50;99.90;;;;;;5016183;28;20445;-67
2022/11/24 08:05:19;;;;;;;7.13;3.03;;;8.50;99.90;;;;;;5015444;28;20868;-66
2022/11/24 08:07:46;;;;;;;11.03;3.80;;;8.40;99.90;;;;;;5015202;28;20500;-66
2022/11/24 08:10:14;;;;;;;8.70;2.57;;;8.40;99.90;;;;;;5015913;28;20530;-66
2022/11/24 08:12:40;;;;;;;13.10;2.60;;;8.40;99.90;;;;;;5014974;28;20468;-67
2022/11/24 08:15:08;;;;;;;8.00;2.30;;;8.40;99.90;;;;;;5013785;28;20534;-67
2022/11/24 08:17:35;;;;;;;6.80;2.00;;;8.40;99.90;;;;;;5014698;28;20463;-67
2022/11/24 08:20:02;;;;;;;4.20;2.00;;;8.40;99.90;;;;;;5014692;28;20820;-66
2022/11/24 08:22:29;;;;;;;4.07;1.80;;;8.40;99.90;;;;;;5014458;28;20953;-66
2022/11/24 08:24:55;;;;;;;7.97;2.43;;;8.50;99.90;;;;;;5014604;28;20503;-66
2022/11/24 08:27:23;;;;;;;8.40;2.90;;;8.50;99.90;;;;;;5014793;28;20453;-67
2022/11/24 08:29:50;;;;;;;5.20;2.37;;;8.50;99.90;;;;;;5014223;28;20950;-66
2022/11/24 08:32:17;;;;;;;4.27;2.50;;;8.60;99.90;;;;;;5014533;28;20527;-67
2022/11/24 08:34:43;;;;;;;5.40;2.90;;;8.60;99.90;;;;;;5014912;28;20472;-68
2022/11/24 08:37:10;;;;;;;5.60;2.07;;;8.60;99.90;;;;;;5014402;28;20460;-68
2022/11/24 08:39:38;;;;;;;4.67;2.10;;;8.60;99.90;;;;;;5014311;28;20449;-67
2022/11/24 08:42:04;;;;;;;2.47;2.13;;;8.60;99.90;;;;;;5014177;28;20477;-68
2022/11/24 08:44:33;;;;;;;5.13;1.50;;;8.60;99.90;;;;;;5014312;28;20456;-67
2022/11/24 08:46:59;;;;;;;5.27;1.77;;;8.60;99.90;;;;;;5013978;28;20966;-67
2022/11/24 08:49:26;;;;;;;4.27;1.80;;;8.60;99.90;;;;;;5014362;28;20472;-68
2022/11/24 08:51:53;;;;;;;3.93;1.57;;;8.60;99.90;;;;;;5014042;28;20479;-67
2022/11/24 08:54:20;;;;;;;2.70;1.90;;;8.60;99.90;;;;;;5014314;28;20473;-67
2022/11/24 08:56:49;;;;;;;1.70;1.20;;;8.60;99.90;;;;;;5014010;28;20452;-67
2022/11/24 08:59:16;;;;;;;3.70;1.30;;;8.60;99.90;;;;;;5014282;28;20472;-67
2022/11/24 09:01:44;;;;;;;2.63;1.07;;;8.60;99.90;;;;;;5013766;28;20481;-67
2022/11/24 09:04:10;;;;;;;1.43;1.20;;;8.60;99.90;;;;;;5014108;28;20459;-66
2022/11/24 09:06:37;;;;;;;4.53;1.30;;;8.60;99.90;;;;;;5014103;28;20456;-67
2022/11/24 09:09:04;;;;;;;2.20;1.20;;;8.60;99.90;;;;;;5014073;28;20457;-67
2022/11/24 09:11:33;;;;;;;1.30;1.20;;;8.60;99.90;;;;;;5013944;28;21013;-67
2022/11/24 09:13:59;;;;;;;2.73;0.97;;;8.70;99.90;;;;;;5014086;28;20519;-67
2022/11/24 09:16:27;;;;;;;1.43;1.33;;;8.70;99.90;;;;;;5014084;28;20506;-67
2022/11/24 09:18:57;;;;;;;3.03;1.00;;;8.80;99.90;;;;;;5013988;28;20460;-68
2022/11/24 09:21:24;;;;;;;1.37;0.70;;;8.80;99.90;;;;;;5014450;28;20537;-68
2022/11/24 09:23:52;;;;;;;0.53;0.53;;;8.90;99.90;;;;;;5014165;28;20507;-67
2022/11/24 09:26:21;;;;;;;0.70;0.70;;;9.00;99.90;;;;;;5017206;28;20445;-67
2022/11/24 09:28:49;;;;;;;1.47;1.10;;;9.10;99.90;;;;;;5017948;28;20463;-67
2022/11/24 09:31:17;;;;;;;0.80;0.60;;;9.10;99.90;;;;;;5017836;28;20472;-67
2022/11/24 09:33:44;;;;;;;1.33;0.50;;;9.20;99.90;;;;;;5018208;28;20474;-67
2022/11/24 09:36:13;;;;;;;0.70;0.70;;;9.10;99.90;;;;;;5017961;28;20867;-66
2022/11/24 09:38:40;;;;;;;0.93;0.63;;;9.20;99.90;;;;;;5018037;28;20460;-67
2022/11/24 09:41:40;;;;;;;0.83;0.67;;;9.20;99.90;;;;;;5017758;28;20469;-67
2022/11/24 09:44:31;;;;;;;0.63;0.60;;;9.20;99.90;;;;;;5017703;28;20503;-67
2022/11/24 09:47:09;;;;;;;0.60;0.50;;;9.30;99.90;;;;;;5017961;28;20839;-67
2022/11/24 09:49:43;;;;;;;1.03;0.60;;;9.40;99.90;;;;;;5017780;28;20437;-67
2022/11/24 09:52:16;;;;;;;0.70;0.70;;;9.50;99.90;;;;;;5017673;28;21056;-67
2022/11/24 09:54:51;;;;;;;0.97;0.70;;;9.50;99.90;;;;;;5017364;28;20975;-67
2022/11/24 09:57:20;;;;;;;1.43;1.33;;;9.60;99.90;;;;;;5017569;28;20441;-67
2022/11/24 09:59:46;;;;;;;0.90;0.90;;;9.70;99.90;;;;;;5018646;28;20452;-67
2022/11/24 10:02:13;;;;;;;0.63;0.63;;;9.60;99.90;;;;;;5017446;28;20480;-66
2022/11/24 10:04:43;;;;;;;1.67;0.90;;;9.60;99.90;;;;;;5017680;28;20453;-67
2022/11/24 10:07:20;;;;;;;0.87;0.60;;;9.70;99.90;;;;;;5016903;28;20974;-66
2022/11/24 10:09:59;;;;;;;1.50;0.70;;;9.60;99.90;;;;;;5017192;28;20449;-67
2022/11/24 10:12:44;;;;;;;0.90;0.90;;;9.70;99.90;;;;;;5016992;28;20476;-66
2022/11/24 10:15:29;;;;;;;0.60;0.60;;;9.70;99.90;;;;;;5017056;28;20527;-67
2022/11/24 10:18:19;;;;;;;1.87;0.57;;;9.80;99.90;;;;;;5017272;28;20444;-67
2022/11/24 10:20:55;;;;;;;1.57;0.60;;;9.90;99.90;;;;;;5016926;28;20531;-67
2022/11/24 10:23:36;;;;;;;0.90;0.90;;;10.20;99.90;;;;;;5016815;28;20563;-67
2022/11/24 10:26:07;;;;;;;0.63;0.50;;;10.90;99.90;;;;;;5016946;28;20433;-67
2022/11/24 10:28:39;;;;;;;0.60;0.53;;;11.50;99.90;;;;;;5016831;28;20441;-68
2022/11/24 10:31:22;;;;;;;0.77;0.77;;;12.10;99.90;;;;;;5016643;28;20523;-70
2022/11/24 10:33:49;;;;;;;1.50;0.57;;;12.50;99.90;;;;;;5016927;28;20491;-67
2022/11/24 10:36:21;;;;;;;0.53;0.50;;;12.50;99.90;;;;;;5016030;28;20532;-67
2022/11/24 10:38:56;;;;;;;0.60;0.60;;;12.30;99.90;;;;;;5016570;28;20472;-67
2022/11/24 10:41:27;;;;;;;1.97;0.70;;;12.30;99.90;;;;;;5017513;28;20480;-67
2022/11/24 10:43:57;;;;;;;0.80;0.73;;;12.10;99.90;;;;;;5018234;28;20443;-67
2022/11/24 10:46:26;;;;;;;2.00;0.70;;;12.00;99.90;;;;;;5018997;28;20417;-68
2022/11/24 10:48:57;;;;;;;0.87;0.70;;;12.00;99.90;;;;;;5018827;28;20453;-68
2022/11/24 10:51:48;;;;;;;0.40;0.40;;;12.00;99.90;;;;;;5016641;28;20477;-67
2022/11/24 10:54:19;;;;;;;1.33;0.97;;;11.90;99.90;;;;;;5016312;28;20956;-67
2022/11/24 10:56:47;;;;;;;1.33;0.77;;;11.80;99.90;;;;;;5016288;28;20535;-67
2022/11/24 10:59:31;;;;;;;0.70;0.70;;;11.70;99.90;;;;;;5016331;28;20503;-68
2022/11/24 11:01:58;;;;;;;1.60;0.70;;;11.70;99.90;;;;;;5016009;28;20488;-67
2022/11/24 11:04:27;;;;;;;1.10;0.67;;;11.70;99.90;;;;;;5016031;28;20453;-67
2022/11/24 11:07:15;;;;;;;0.87;0.70;;;11.70;99.90;;;;;;5017367;28;20468;-73
2022/11/24 11:09:43;;;;;;;1.80;1.70;;;11.70;99.90;;;;;;5016262;28;20441;-68
2022/11/24 11:12:17;;;;;;;1.00;0.80;;;11.60;99.90;;;;;;5015816;28;20481;-68
2022/11/24 11:14:46;;;;;;;0.97;0.90;;;11.50;99.90;;;;;;5015525;28;20916;-68
2022/11/24 11:17:34;;;;;;;2.70;0.70;;;11.50;99.90;;;;;;5015995;28;20457;-67
2022/11/24 11:20:04;;;;;;;2.00;0.80;;;11.40;99.90;;;;;;5015804;28;20499;-68
2022/11/24 11:22:33;;;;;;;2.23;0.97;;;11.40;99.90;;;;;;5015575;28;20472;-67
2022/11/24 11:25:16;;;;;;;1.40;0.90;;;11.30;99.90;;;;;;5015692;28;20527;-68
2022/11/24 11:27:43;;;;;;;1.70;0.97;;;11.30;99.90;;;;;;5015718;28;20440;-67
2022/11/24 11:30:18;;;;;;;1.20;1.10;;;11.30;99.90;;;;;;5015456;28;20457;-67
2022/11/24 11:32:53;;;;;;;1.90;1.07;;;11.30;99.90;;;;;;5015434;28;20850;-68
2022/11/24 11:35:20;;;;;;;1.17;0.90;;;11.40;99.90;;;;;;5015532;28;20468;-67
2022/11/24 11:37:49;;;;;;;1.87;1.23;;;11.40;99.90;;;;;;5015270;28;20448;-67
2022/11/24 11:40:22;;;;;;;0.90;0.70;;;11.40;99.90;;;;;;5014965;28;20453;-67
2022/11/24 11:42:54;;;;;;;1.57;1.00;;;11.50;99.90;;;;;;5015258;28;20440;-67
2022/11/24 11:45:26;;;;;;;0.90;0.90;;;11.60;99.90;;;;;;5015250;28;20441;-67
2022/11/24 11:47:57;;;;;;;3.20;1.07;;;11.60;99.90;;;;;;5015100;28;20441;-67
2022/11/24 11:50:27;;;;;;;2.30;1.10;;;11.70;99.90;;;;;;5015582;28;20456;-67
2022/11/24 11:53:05;;;;;;;2.30;1.30;;;11.70;99.90;;;;;;5015219;28;20452;-72
2022/11/24 11:55:42;;;;;;;1.93;1.30;;;11.60;99.90;;;;;;5015190;28;20465;-67
2022/11/24 11:58:56;;;;;;;3.47;1.20;;;11.80;99.90;;;;;;5015040;28;20844;-67
2022/11/24 12:01:47;;;;;;;4.00;1.60;;;12.10;99.90;;;;;;4954217;29;20483;-68
2022/11/24 12:04:20;;;;;;;3.17;1.60;;;12.40;99.90;;;;;;5008407;28;20457;-67
2022/11/24 12:07:00;;;;;;;4.80;1.17;;;12.50;99.90;;;;;;5014949;28;20838;-67
2022/11/24 12:09:40;;;;;;;6.47;2.17;;;12.60;99.90;;;;;;5014487;28;20970;-67
2022/11/24 12:12:30;;;;;;;3.80;1.43;;;12.70;99.90;;;;;;5014706;28;20465;-67
2022/11/24 12:15:03;;;;;;;5.60;1.90;;;12.70;99.90;;;;;;5014433;28;20962;-66
2022/11/24 12:17:35;;;;;;;7.23;2.20;;;12.70;99.90;;;;;;5014795;28;20499;-65
2022/11/24 12:20:18;;;;;;;5.63;2.20;;;12.60;99.90;;;;;;5014712;28;20445;-65
2022/11/24 12:22:50;;;;;;;6.43;2.50;;;12.50;99.90;;;;;;5014656;28;20441;-67
2022/11/24 12:25:25;;;;;;;4.70;2.20;;;12.60;99.90;;;;;;5014669;28;20434;-65
2022/11/24 12:28:05;;;;;;;3.50;2.17;;;12.70;99.90;;;;;;5014483;28;20437;-65
2022/11/24 12:30:40;;;;;;;6.33;2.33;;;12.80;99.90;;;;;;5014181;28;20441;-68
2022/11/24 12:33:25;;;;;;;9.20;2.20;;;12.80;99.90;;;;;;5014408;28;20495;-68
2022/11/24 12:35:55;;;;;;;10.13;2.00;;;12.90;99.90;;;;;;5014286;28;20468;-67
2022/11/24 12:38:35;;;;;;;7.63;1.77;;;12.90;99.90;;;;;;5014522;28;20445;-66
2022/11/24 12:41:25;;;;;;;9.33;2.20;;;12.90;99.90;;;;;;5014093;28;20472;-67
2022/11/24 12:43:56;;;;;;;7.17;1.67;;;12.90;99.90;;;;;;5014152;28;20512;-65
2022/11/24 12:46:31;;;;;;;7.80;1.90;;;12.70;99.90;;;;;;5014406;28;20437;-67
2022/11/24 12:49:09;;;;;;;7.67;2.27;;;12.50;99.90;;;;;;5014242;28;20440;-68
2022/11/24 12:51:40;;;;;;;6.80;2.17;;;12.50;99.90;;;;;;5014114;28;20540;-66
2022/11/24 12:54:13;;;;;;;7.37;1.90;;;12.40;99.90;;;;;;5014117;28;20856;-65
2022/11/24 12:56:45;;;;;;;8.27;2.17;;;12.30;99.90;;;;;;5014054;28;20464;-67
2022/11/24 12:59:24;;;;;;;7.83;2.27;;;12.20;99.90;;;;;;5013785;28;20437;-65
2022/11/24 13:02:01;;;;;;;7.30;3.20;;;12.20;99.90;;;;;;5013606;28;20484;-66
2022/11/24 13:04:35;;;;;;;5.47;2.10;;;12.20;99.90;;;;;;5014203;28;20488;-64
2022/11/24 13:07:09;;;;;;;10.33;2.20;;;12.20;99.90;;;;;;5014027;28;20444;-66
2022/11/24 13:09:35;;;;;;;4.17;2.13;;;12.20;99.90;;;;;;5013842;28;20441;-67
2022/11/24 13:12:13;;;;;;;6.13;1.80;;;12.20;99.90;;;;;;5014050;28;20527;-66
2022/11/24 13:14:43;;;;;;;8.30;2.10;;;12.30;99.90;;;;;;5014901;28;20459;-66
2022/11/24 13:17:33;;;;;;;5.97;1.87;;;12.30;99.90;;;;;;5013955;28;20460;-66
2022/11/24 13:20:15;;;;;;;5.97;2.30;;;12.40;99.90;;;;;;5010030;28;20543;-67
2022/11/24 13:22:48;;;;;;;5.33;2.00;;;12.40;99.90;;;;;;5014065;28;20855;-67
2022/11/24 13:25:18;;;;;;;7.20;1.70;;;12.40;99.90;;;;;;5013804;28;20434;-66
2022/11/24 13:27:48;;;;;;;8.00;2.43;;;12.50;99.90;;;;;;5014372;28;20444;-68
2022/11/24 13:30:53;;;;;;;4.13;1.67;;;12.50;99.90;;;;;;5013826;28;20518;-66
2022/11/24 13:33:38;;;;;;;6.43;2.03;;;12.60;99.90;;;;;;4992201;28;20452;-65
2022/11/24 13:36:30;;;;;;;3.63;2.13;;;12.60;99.90;;;;;;5014017;28;20465;-66
2022/11/24 13:38:58;;;;;;;4.07;1.90;;;12.70;99.90;;;;;;5014184;28;20433;-66
2022/11/24 13:42:10;;;;;;;10.20;2.10;;;12.70;99.90;;;;;;5014404;28;20473;-66
2022/11/24 13:45:01;;;;;;;5.77;1.60;;;12.80;99.90;;;;;;5014351;28;20456;-66
2022/11/24 13:47:31;;;;;;;4.70;1.87;;;12.70;99.90;;;;;;4999532;28;20464;-66
2022/11/24 13:50:00;;;;;;;4.53;1.50;;;12.80;99.90;;;;;;5014725;28;20460;-66
2022/11/24 13:52:43;;;;;;;7.03;2.40;;;12.80;99.90;;;;;;5013874;28;20841;-65
2022/11/24 13:55:29;;;;;;;17.53;3.00;;;12.90;99.90;;;;;;5013944;28;20449;-63
2022/11/24 13:58:00;;;;;;;8.93;2.27;;;13.00;99.90;;;;;;5013735;28;20445;-63
2022/11/24 14:00:29;;;;;;;4.10;1.90;;;13.10;99.90;;;;;;5013152;28;20452;-63
2022/11/24 14:03:00;;;;;;;5.20;2.00;;;12.90;99.90;;;;;;5013651;28;20429;-62
2022/11/24 14:05:37;;;;;;;5.63;1.90;;;12.90;99.90;;;;;;5013480;28;20452;-64
2022/11/24 14:08:06;;;;;;;3.13;1.57;;;12.90;99.90;;;;;;5013969;28;20814;-63
2022/11/24 14:10:35;;;;;;;5.53;1.83;;;12.70;99.90;;;;;;5013469;28;20453;-63
2022/11/24 14:13:25;;;;;;;6.50;2.13;;;12.80;99.90;;;;;;5016280;28;20457;-61
2022/11/24 14:16:03;;;;;;;3.70;1.70;;;12.70;99.90;;;;;;5018773;28;20532;-62
2022/11/24 14:18:30;;;;;;;8.93;2.90;;;12.60;99.90;;;;;;5018021;28;20452;-62
2022/11/24 14:21:00;;;;;;;3.87;1.60;;;12.50;99.90;;;;;;5017131;28;20559;-62
2022/11/24 14:23:27;;;;;;;5.53;1.90;;;12.60;99.90;;;;;;5018265;28;20931;-62
2022/11/24 14:25:54;;;;;;;4.53;1.90;;;12.60;99.90;;;;;;5018937;28;20495;-62
2022/11/24 14:28:24;;;;;;;7.30;1.90;;;12.60;99.90;;;;;;5018336;28;20444;-62
2022/11/24 14:30:51;;;;;;;7.00;2.87;;;12.60;99.90;;;;;;5018078;28;20523;-65
2022/11/24 14:33:19;;;;;;;5.70;2.10;;;12.70;99.90;;;;;;5017194;28;20845;-62
2022/11/24 14:35:49;;;;;;;7.83;2.17;;;12.70;99.90;;;;;;5016753;28;20959;-62
2022/11/24 14:38:17;;;;;;;4.50;2.10;;;12.80;99.90;;;;;;5017100;28;20487;-63
2022/11/24 14:40:46;;;;;;;7.97;3.43;;;12.90;99.90;;;;;;5016505;28;20837;-63
2022/11/24 14:43:22;;;;;;;9.20;2.23;;;12.90;99.90;;;;;;5016708;28;20459;-65
2022/11/24 14:45:50;;;;;;;5.03;1.80;;;12.80;99.90;;;;;;5016637;28;20539;-62
2022/11/24 14:48:19;;;;;;;5.30;1.80;;;12.70;99.90;;;;;;5016620;28;20456;-64
2022/11/24 14:50:46;;;;;;;4.70;2.07;;;12.60;99.90;;;;;;5016139;28;20526;-63
2022/11/24 14:53:18;;;;;;;4.77;1.90;;;12.40;99.90;;;;;;5016451;28;20514;-63
2022/11/24 14:55:44;;;;;;;4.47;2.20;;;12.20;99.90;;;;;;5016202;28;20491;-64
2022/11/24 14:58:29;;;;;;;6.20;2.53;;;12.10;99.90;;;;;;5016453;28;20506;-66
2022/11/24 15:01:17;;;;;;;10.20;1.90;;;12.00;99.90;;;;;;5015922;28;20484;-66
2022/11/24 15:03:44;;;;;;;8.37;2.77;;;11.90;99.90;;;;;;5016166;28;20445;-66
2022/11/24 15:06:18;;;;;;;3.93;1.67;;;11.90;99.90;;;;;;5016155;28;20449;-66
2022/11/24 15:08:48;;;;;;;3.60;1.50;;;11.90;99.90;;;;;;5016143;28;20445;-66
2022/11/24 15:11:15;;;;;;;3.10;2.00;;;11.80;99.90;;;;;;5015919;28;20531;-66
2022/11/24 15:13:53;;;;;;;7.63;2.23;;;11.80;99.90;;;;;;5016731;28;20460;-66
2022/11/24 15:16:22;;;;;;;6.90;2.33;;;11.70;99.90;;;;;;5015719;28;21046;-66
2022/11/24 15:18:55;;;;;;;3.60;1.70;;;11.70;99.90;;;;;;5015647;28;20456;-67
2022/11/24 15:21:30;;;;;;;4.97;1.80;;;11.70;99.90;;;;;;5015966;28;21069;-66
2022/11/24 15:24:16;;;;;;;8.37;2.30;;;11.60;99.90;;;;;;5015488;28;20495;-67
2022/11/24 15:26:43;;;;;;;9.50;2.17;;;11.50;99.90;;;;;;5015802;28;20900;-67
2022/11/24 15:29:10;;;;;;;6.13;2.20;;;11.40;99.90;;;;;;5015714;28;20863;-67
2022/11/24 15:31:37;;;;;;;4.40;1.90;;;11.30;99.90;;;;;;5015768;28;20469;-66
2022/11/24 15:34:03;;;;;;;4.90;2.43;;;11.20;99.90;;;;;;5015710;28;20457;-67
2022/11/24 15:36:30;;;;;;;4.20;1.80;;;11.20;99.90;;;;;;5015121;28;21042;-67
2022/11/24 15:38:57;;;;;;;5.87;1.93;;;11.10;99.90;;;;;;5015508;28;21011;-67
2022/11/24 15:41:28;;;;;;;7.27;2.30;;;11.00;99.90;;;;;;5015602;28;20483;-67
2022/11/24 15:43:58;;;;;;;4.20;1.67;;;10.90;99.90;;;;;;5015345;28;20533;-67
2022/11/24 15:46:24;;;;;;;4.73;2.00;;;10.80;99.90;;;;;;5015331;28;20484;-67
2022/11/24 15:48:52;;;;;;;5.53;1.60;;;10.80;99.90;;;;;;5015781;28;20441;-67
2022/11/24 15:51:19;;;;;;;5.07;2.30;;;10.70;99.90;;;;;;5014946;28;20563;-66
2022/11/24 15:53:48;;;;;;;5.73;1.93;;;10.50;99.90;;;;;;5015049;28;20441;-67
2022/11/24 15:56:22;;;;;;;6.33;2.00;;;10.40;99.90;;;;;;5015112;28;20465;-67
2022/11/24 15:58:50;;;;;;;4.77;2.20;;;10.40;99.90;;;;;;5015075;28;20504;-67
2022/11/24 16:01:17;;;;;;;7.63;2.50;;;10.30;99.90;;;;;;5015000;28;20487;-66
2022/11/24 16:03:44;;;;;;;7.67;2.73;;;10.20;99.90;;;;;;5015150;28;20457;-67
2022/11/24 16:06:14;;;;;;;8.10;4.30;;;10.10;99.90;;;;;;5015129;28;20453;-67
2022/11/24 16:08:40;;;;;;;8.60;3.87;;;10.00;99.90;;;;;;5014973;28;20441;-68
2022/11/24 16:11:07;;;;;;;10.20;3.60;;;9.90;99.90;;;;;;5014838;28;20808;-64
2022/11/24 16:13:34;;;;;;;7.80;4.40;;;9.80;99.90;;;;;;5015378;28;20453;-63
2022/11/24 16:16:02;;;;;;;11.87;9.63;;;9.70;99.90;;;;;;5015660;28;20452;-64
2022/11/24 16:18:30;;;;;;;7.07;4.23;;;9.70;99.90;;;;;;5015713;28;20453;-64
2022/11/24 16:20:58;;;;;;;6.50;4.27;;;9.60;99.90;;;;;;5015387;28;20480;-64
2022/11/24 16:23:24;;;;;;;7.43;3.53;;;9.50;99.90;;;;;;5014950;28;20869;-64
2022/11/24 16:25:51;;;;;;;9.13;3.20;;;9.50;99.90;;;;;;5014824;28;20515;-64
2022/11/24 16:28:19;;;;;;;8.70;3.33;;;9.40;99.90;;;;;;5014776;28;20499;-64
2022/11/24 16:30:48;;;;;;;14.17;5.20;;;9.40;99.90;;;;;;5014700;28;20483;-63
2022/11/24 16:33:16;;;;;;;7.03;3.37;;;9.40;99.90;;;;;;5014693;28;20456;-63
2022/11/24 16:35:46;;;;;;;10.87;3.53;;;9.40;99.90;;;;;;5015384;28;20456;-63
2022/11/24 16:38:15;;;;;;;5.70;3.00;;;9.40;99.90;;;;;;5017308;28;20558;-63
2022/11/24 16:40:42;;;;;;;6.30;2.40;;;9.30;99.90;;;;;;5017211;28;20568;-63
2022/11/24 16:43:09;;;;;;;5.77;2.83;;;9.30;99.90;;;;;;5016111;28;20468;-61
2022/11/24 16:45:35;;;;;;;8.17;3.30;;;9.20;99.90;;;;;;5014533;28;20492;-60
2022/11/24 16:48:02;;;;;;;8.63;2.90;;;9.20;99.90;;;;;;5014345;28;20448;-63
2022/11/24 16:50:30;;;;;;;16.40;3.73;;;9.20;99.90;;;;;;5013866;28;20457;-63
2022/11/24 16:52:57;;;;;;;6.13;2.67;;;9.10;99.90;;;;;;5014058;28;20457;-63
2022/11/24 16:55:23;;;;;;;7.10;2.60;;;9.10;99.90;;;;;;5014376;28;20569;-64
2022/11/24 16:57:50;;;;;;;7.17;3.10;;;9.10;99.90;;;;;;5013712;28;20477;-70
2022/11/24 17:00:18;;;;;;;6.20;3.00;;;9.00;99.90;;;;;;5014266;28;20456;-65
2022/11/24 17:02:45;;;;;;;7.30;2.70;;;9.00;99.90;;;;;;5014112;28;20453;-63
2022/11/24 17:05:11;;;;;;;6.57;2.87;;;8.90;99.90;;;;;;5014031;28;20453;-63
2022/11/24 17:07:39;;;;;;;7.63;2.87;;;8.80;99.90;;;;;;5014115;28;20449;-63
2022/11/24 17:10:07;;;;;;;15.73;3.37;;;8.80;99.90;;;;;;5013944;28;20507;-63
2022/11/24 17:12:35;;;;;;;8.57;3.73;;;8.70;99.90;;;;;;5013800;28;20469;-62
2022/11/24 17:15:02;;;;;;;11.00;3.53;;;8.70;99.90;;;;;;5014055;28;20515;-64
2022/11/24 17:17:29;;;;;;;9.83;3.07;;;8.70;99.90;;;;;;5014105;28;20576;-65
2022/11/24 17:19:56;;;;;;;6.60;3.53;;;8.70;99.90;;;;;;5014328;28;20817;-66
2022/11/24 17:22:22;;;;;;;7.43;3.60;;;8.70;99.90;;;;;;5014857;28;20472;-67
2022/11/24 17:24:50;;;;;;;8.13;3.77;;;8.70;99.90;;;;;;5017192;28;20959;-69
2022/11/24 17:27:17;;;;;;;8.90;3.53;;;8.70;99.90;;;;;;5016749;28;20479;-67
2022/11/24 17:29:43;;;;;;;7.70;3.87;;;8.70;99.90;;;;;;5015416;28;20527;-68
2022/11/24 17:32:10;;;;;;;7.60;3.60;;;8.70;99.90;;;;;;5014533;28;20477;-67
2022/11/24 17:34:37;;;;;;;8.03;3.43;;;8.60;99.90;;;;;;5014680;28;20526;-67
2022/11/24 17:37:03;;;;;;;4.67;3.90;;;8.60;99.90;;;;;;5013763;28;21041;-67
2022/11/24 17:39:30;;;;;;;7.43;3.60;;;8.60;99.90;;;;;;5013853;28;20457;-68
2022/11/24 17:41:58;;;;;;;8.13;3.47;;;8.60;99.90;;;;;;5014015;28;20550;-68
2022/11/24 17:44:25;;;;;;;10.23;3.40;;;8.60;99.90;;;;;;5014015;28;20805;-68
2022/11/24 17:46:52;;;;;;;9.73;3.50;;;8.50;99.90;;;;;;5016253;28;20539;-67
2022/11/24 17:49:20;;;;;;;9.37;4.00;;;8.40;99.90;;;;;;5017445;28;20940;-67
2022/11/24 17:51:49;;;;;;;9.67;3.50;;;8.40;99.90;;;;;;5017461;28;20563;-68
2022/11/24 17:54:16;;;;;;;11.90;5.00;;;8.40;99.90;;;;;;5017482;28;20463;-67
2022/11/24 17:56:42;;;;;;;11.83;4.27;;;8.30;99.90;;;;;;5017412;28;20507;-68
2022/11/24 17:59:10;;;;;;;8.10;4.40;;;8.40;99.90;;;;;;5017186;28;20456;-67
2022/11/24 18:01:37;;;;;;;24.87;16.80;;;8.30;99.90;;;;;;5017335;28;20488;-65
2022/11/24 18:04:05;;;;;;;11.10;5.10;;;8.30;99.90;;;;;;5016836;28;20949;-67
2022/11/24 18:06:33;;;;;;;9.67;4.03;;;8.50;99.90;;;;;;5017096;28;20444;-66
2022/11/24 18:08:59;;;;;;;9.37;3.80;;;8.50;99.90;;;;;;5017047;28;20486;-66